createdAt,value
2018-02-20T00:02:03.802Z,54.70
2018-02-20T00:04:33.115Z,54.78
2018-02-20T00:07:02.424Z,55.80
2018-02-20T00:09:32.610Z,49.60
2018-02-20T00:12:01.940Z,51.25
2018-02-20T00:14:31.259Z,46.03
2018-02-20T00:17:01.355Z,50.72
2018-02-20T00:19:30.665Z,51.60
2018-02-20T00:21:59.978Z,54.47
2018-02-20T00:24:30.146Z,54.97
2018-02-20T00:26:59.678Z,56.70
2018-02-20T00:29:28.982Z,56.08
2018-02-20T00:31:58.298Z,59.58
2018-02-20T00:34:28.375Z,50.60
2018-02-20T00:36:57.698Z,51.22
2018-02-20T00:39:27.000Z,53.58
2018-02-20T00:41:56.320Z,56.70
2018-02-20T00:44:26.374Z,58.55
2018-02-20T00:46:55.699Z,61.90
2018-02-20T00:49:25.000Z,60.60
2018-02-20T00:51:54.331Z,60.75
2018-02-20T00:54:23.675Z,56.03
2018-02-20T00:56:52.949Z,55.12
2018-02-20T00:59:22.253Z,63.08
2018-02-20T01:01:51.625Z,62.05
2018-02-20T01:04:20.912Z,54.25
2018-02-20T01:06:50.265Z,56.10
2018-02-20T01:09:20.479Z,59.63
2018-02-20T01:11:49.821Z,60.47
2018-02-20T01:14:19.134Z,64.00
2018-02-20T01:16:48.440Z,54.20
2018-02-20T01:19:17.863Z,54.88
2018-02-20T01:21:47.170Z,49.63
2018-02-20T01:24:16.464Z,60.03
2018-02-20T01:26:45.772Z,61.28
2018-02-20T01:29:15.103Z,65.72
2018-02-20T01:31:44.421Z,63.22
2018-02-20T01:34:13.727Z,58.90
2018-02-20T01:36:43.122Z,59.50
2018-02-20T01:39:12.424Z,60.70
2018-02-20T01:41:41.735Z,52.20
2018-02-20T01:44:11.038Z,61.78
2018-02-20T01:46:40.324Z,54.25
2018-02-20T01:49:09.653Z,56.53
2018-02-20T01:51:38.977Z,57.80
2018-02-20T01:54:08.422Z,59.15
2018-02-20T01:56:37.723Z,62.25
2018-02-20T01:59:07.009Z,61.47
2018-02-20T02:01:36.375Z,57.62
2018-02-20T02:04:06.454Z,63.25
2018-02-20T02:06:35.757Z,54.70
2018-02-20T02:09:05.069Z,55.35
2018-02-20T02:11:34.395Z,56.83
2018-02-20T02:14:03.728Z,55.33
2018-02-20T02:16:34.055Z,54.30
2018-02-20T02:19:04.182Z,58.45
2018-02-20T02:21:33.483Z,64.95
2018-02-20T02:24:02.799Z,58.60
2018-02-20T02:26:32.120Z,60.00
2018-02-20T02:29:01.440Z,56.60
2018-02-20T02:31:30.744Z,57.33
2018-02-20T02:34:00.028Z,56.40
2018-02-20T02:36:29.372Z,66.47
2018-02-20T02:38:59.585Z,57.72
2018-02-20T02:41:29.719Z,65.10
2018-02-20T02:43:59.770Z,61.33
2018-02-20T02:46:29.081Z,51.60
2018-02-20T02:48:58.431Z,56.80
2018-02-20T02:51:27.760Z,53.67
2018-02-20T02:53:57.055Z,61.97
2018-02-20T02:56:26.370Z,59.60
2018-02-20T02:58:55.691Z,59.15
2018-02-20T03:01:25.659Z,60.00
2018-02-20T03:03:54.962Z,60.45
2018-02-20T03:06:24.301Z,56.05
2018-02-20T03:08:53.617Z,61.30
2018-02-20T03:11:22.957Z,53.70
2018-02-20T03:13:53.016Z,59.28
2018-02-20T03:16:22.333Z,59.72
2018-02-20T03:18:51.671Z,68.72
2018-02-20T03:21:20.986Z,60.55
2018-02-20T03:23:51.986Z,63.00
2018-02-20T03:26:22.011Z,62.05
2018-02-20T03:28:51.335Z,58.80
2018-02-20T03:31:20.629Z,63.08
2018-02-20T03:33:50.724Z,57.10
2018-02-20T03:36:20.061Z,70.57
2018-02-20T03:38:50.109Z,58.40
2018-02-20T03:41:20.347Z,59.33
2018-02-20T03:43:49.640Z,56.28
2018-02-20T03:46:18.990Z,64.12
2018-02-20T03:48:49.092Z,60.40
2018-02-20T03:51:18.397Z,56.08
2018-02-20T03:53:47.710Z,59.63
2018-02-20T03:56:17.801Z,64.97
2018-02-20T03:58:47.857Z,57.33
2018-02-20T04:01:18.095Z,60.22
2018-02-20T04:03:49.487Z,56.40
2018-02-20T04:06:18.793Z,65.80
2018-02-20T04:08:48.127Z,54.72
2018-02-20T04:11:18.723Z,55.35
2018-02-20T04:13:48.047Z,60.72
2018-02-20T04:16:17.386Z,59.30
2018-02-20T04:18:46.687Z,56.55
2018-02-20T04:21:15.983Z,62.40
2018-02-20T04:23:45.305Z,57.62
2018-02-20T04:26:14.600Z,63.78
2018-02-20T04:28:43.897Z,57.92
2018-02-20T04:31:13.236Z,58.25
2018-02-20T04:33:42.538Z,56.67
2018-02-20T04:36:11.862Z,58.38
2018-02-20T04:38:41.164Z,56.15
2018-02-20T04:41:11.223Z,70.25
2018-02-20T04:43:40.566Z,54.83
2018-02-20T04:46:09.869Z,64.50
2018-02-20T04:48:39.175Z,58.58
2018-02-20T04:51:08.491Z,58.55
2018-02-20T04:53:37.800Z,58.25
2018-02-20T04:56:08.064Z,58.17
2018-02-20T04:58:37.356Z,68.45
2018-02-20T05:01:06.649Z,60.85
2018-02-20T05:03:35.978Z,57.15
2018-02-20T05:06:05.295Z,63.17
2018-02-20T05:08:34.586Z,54.22
2018-02-20T05:11:03.928Z,50.80
2018-02-20T05:13:33.230Z,58.78
2018-02-20T05:16:02.528Z,57.35
2018-02-20T05:18:31.891Z,61.17
2018-02-20T05:21:01.182Z,66.90
2018-02-20T05:23:30.487Z,58.10
2018-02-20T05:25:59.812Z,56.97
2018-02-20T05:28:29.992Z,55.28
2018-02-20T05:30:59.315Z,57.47
2018-02-20T05:33:28.601Z,54.53
2018-02-20T05:35:57.893Z,51.15
2018-02-20T05:38:28.087Z,52.13
2018-02-20T05:40:57.387Z,58.10
2018-02-20T05:43:26.746Z,53.35
2018-02-20T05:45:56.057Z,50.58
2018-02-20T05:48:26.199Z,52.17
2018-02-20T05:50:55.561Z,61.08
2018-02-20T05:53:24.825Z,52.03
2018-02-20T05:55:54.197Z,57.83
2018-02-20T05:58:23.497Z,55.60
2018-02-20T06:00:52.795Z,61.20
2018-02-20T06:03:22.132Z,51.83
2018-02-20T06:05:51.416Z,55.00
2018-02-20T06:08:20.732Z,57.75
2018-02-20T06:10:50.039Z,51.25
2018-02-20T06:13:19.371Z,56.45
2018-02-20T06:15:48.681Z,61.25
2018-02-20T06:18:19.480Z,50.95
2018-02-20T06:20:48.814Z,61.85
2018-02-20T06:23:18.358Z,54.03
2018-02-20T06:25:47.664Z,60.30
2018-02-20T06:28:17.034Z,60.20
2018-02-20T06:30:47.097Z,57.25
2018-02-20T06:33:16.427Z,60.40
2018-02-20T06:35:45.718Z,51.22
2018-02-20T06:38:15.018Z,53.72
2018-02-20T06:40:44.345Z,57.83
2018-02-20T06:43:14.434Z,54.13
2018-02-20T06:45:43.832Z,54.53
2018-02-20T06:48:13.128Z,52.53
2018-02-20T06:50:42.462Z,49.42
2018-02-20T06:53:11.814Z,46.00
2018-02-20T06:55:41.152Z,56.50
2018-02-20T06:58:10.454Z,60.17
2018-02-20T07:00:39.757Z,55.65
2018-02-20T07:03:09.075Z,49.63
2018-02-20T07:05:38.377Z,44.00
2018-02-20T07:08:07.675Z,50.72
2018-02-20T07:10:37.793Z,49.30
2018-02-20T07:13:07.841Z,50.70
2018-02-20T07:15:37.306Z,52.47
2018-02-20T07:18:06.598Z,51.92
2018-02-20T07:20:35.898Z,49.75
2018-02-20T07:23:05.234Z,49.08
2018-02-20T07:25:34.510Z,45.53
2018-02-20T07:28:03.944Z,46.67
2018-02-20T07:30:33.297Z,45.17
2018-02-20T07:33:02.602Z,41.10
2018-02-20T07:35:31.990Z,46.22
2018-02-20T07:38:01.414Z,38.88
2018-02-20T07:40:30.719Z,41.28
2018-02-20T07:43:00.478Z,37.35
2018-02-20T07:45:29.756Z,37.80
2018-02-20T07:47:59.068Z,54.63
2018-02-20T07:50:28.426Z,59.42
2018-02-20T07:52:57.710Z,67.00
2018-02-20T07:55:27.038Z,56.90
2018-02-20T07:57:56.394Z,50.72
2018-02-20T08:00:25.672Z,49.83
2018-02-20T08:02:54.979Z,44.90
2018-02-20T08:05:24.324Z,45.78
2018-02-20T08:07:53.627Z,50.22
2018-02-20T08:10:22.926Z,50.20
2018-02-20T08:12:52.265Z,44.33
2018-02-20T08:15:22.335Z,50.67
2018-02-20T08:17:52.455Z,47.55
2018-02-20T08:20:21.779Z,54.88
2018-02-20T08:22:51.101Z,46.00
2018-02-20T08:25:20.390Z,49.90
2018-02-20T08:27:50.496Z,47.35
2018-02-20T08:30:19.879Z,47.67
2018-02-20T08:32:49.150Z,54.88
2018-02-20T08:35:18.448Z,50.35
2018-02-20T08:37:47.777Z,44.85
2018-02-20T08:40:17.071Z,51.83
2018-02-20T08:42:46.423Z,64.12
2018-02-20T08:45:16.494Z,48.38
2018-02-20T08:47:45.803Z,57.83
2018-02-20T08:50:15.158Z,59.53
2018-02-20T08:52:44.979Z,56.10
2018-02-20T08:55:14.302Z,61.33
2018-02-20T08:57:43.628Z,56.70
2018-02-20T09:00:12.938Z,59.67
2018-02-20T09:02:43.115Z,67.82
2018-02-20T09:05:12.465Z,53.40
2018-02-20T09:07:42.705Z,56.60
2018-02-20T09:10:12.810Z,52.55
2018-02-20T09:12:42.112Z,63.13
2018-02-20T09:15:11.409Z,56.22
2018-02-20T09:17:40.776Z,65.10
2018-02-20T09:20:10.073Z,52.53
2018-02-20T09:22:39.388Z,58.35
2018-02-20T09:25:08.702Z,59.78
2018-02-20T09:27:38.036Z,65.82
2018-02-20T09:30:07.332Z,62.55
2018-02-20T09:32:37.416Z,61.33
2018-02-20T09:35:06.729Z,63.30
2018-02-20T09:37:36.834Z,61.95
2018-02-20T09:40:06.157Z,61.03
2018-02-20T09:42:36.261Z,58.30
2018-02-20T09:45:05.565Z,58.80
2018-02-20T09:47:34.960Z,58.35
2018-02-20T09:50:04.251Z,59.33
2018-02-20T09:52:33.544Z,53.42
2018-02-20T09:55:02.852Z,54.53
2018-02-20T09:57:32.188Z,60.58
2018-02-20T10:00:01.478Z,54.88
2018-02-20T10:02:30.774Z,54.17
2018-02-20T10:05:00.968Z,59.47
2018-02-20T10:07:31.088Z,52.47
2018-02-20T10:10:00.422Z,45.47
2018-02-20T10:12:29.769Z,47.05
2018-02-20T10:14:59.096Z,47.42
2018-02-20T10:17:28.405Z,50.08
2018-02-20T10:19:57.740Z,41.90
2018-02-20T10:22:27.026Z,44.85
2018-02-20T10:24:56.351Z,46.55
2018-02-20T10:27:25.659Z,47.38
2018-02-20T10:29:55.706Z,39.78
2018-02-20T10:32:25.039Z,43.72
2018-02-20T10:34:54.320Z,34.85
2018-02-20T10:37:23.616Z,39.58
2018-02-20T10:39:52.966Z,37.15
2018-02-20T10:42:22.244Z,42.75
2018-02-20T10:44:51.571Z,44.08
2018-02-20T10:47:21.662Z,43.80
2018-02-20T10:49:50.959Z,41.40
2018-02-20T10:52:20.259Z,43.97
2018-02-20T10:54:49.560Z,44.70
2018-02-20T10:57:18.860Z,49.92
2018-02-20T10:59:48.171Z,44.05
2018-02-20T11:02:18.283Z,36.78
2018-02-20T11:04:47.647Z,44.30
2018-02-20T11:07:16.937Z,47.50
2018-02-20T11:09:46.267Z,41.17
2018-02-20T11:12:16.460Z,45.20
2018-02-20T11:14:45.800Z,41.67
2018-02-20T11:17:16.053Z,43.22
2018-02-20T11:19:46.179Z,43.03
2018-02-20T11:22:16.415Z,42.72
2018-02-20T11:24:46.543Z,46.15
2018-02-20T11:27:15.888Z,46.47
2018-02-20T11:29:45.233Z,40.53
2018-02-20T11:32:14.529Z,45.55
2018-02-20T11:34:43.822Z,42.47
2018-02-20T11:37:13.920Z,43.33
2018-02-20T11:39:44.146Z,46.28
2018-02-20T11:42:13.467Z,42.78
2018-02-20T11:44:42.761Z,45.90
2018-02-20T11:47:12.089Z,50.10
2018-02-20T11:49:41.399Z,51.95
2018-02-20T11:52:10.698Z,46.37
2018-02-20T11:54:40.030Z,51.03
2018-02-20T11:57:09.350Z,47.03
2018-02-20T11:59:38.654Z,49.47
2018-02-20T12:02:07.969Z,56.22
2018-02-20T12:04:37.270Z,48.97
2018-02-20T12:07:06.601Z,46.05
2018-02-20T12:09:35.914Z,39.25
2018-02-20T12:12:05.204Z,38.40
2018-02-20T12:14:34.533Z,40.33
2018-02-20T12:17:03.843Z,41.63
2018-02-20T12:19:33.146Z,40.17
2018-02-20T12:22:02.464Z,52.25
2018-02-20T12:24:32.525Z,52.10
2018-02-20T12:27:01.893Z,62.67
2018-02-20T12:29:31.194Z,51.15
2018-02-20T12:32:01.273Z,54.30
2018-02-20T12:34:30.585Z,49.83
2018-02-20T12:36:59.925Z,50.53
2018-02-20T12:39:29.224Z,52.65
2018-02-20T12:41:58.520Z,62.35
2018-02-20T12:44:27.853Z,57.03
2018-02-20T12:46:57.203Z,57.10
2018-02-20T12:49:26.478Z,64.00
2018-02-20T12:51:56.562Z,65.45
2018-02-20T12:54:25.861Z,60.58
2018-02-20T12:56:55.193Z,64.43
2018-02-20T12:59:24.584Z,63.92
2018-02-20T13:01:53.914Z,58.47
2018-02-20T13:04:23.225Z,67.45
2018-02-20T13:06:52.551Z,63.20
2018-02-20T13:09:21.849Z,57.03
2018-02-20T13:11:51.218Z,55.35
2018-02-20T13:14:20.521Z,65.62
2018-02-20T13:16:49.820Z,60.17
2018-02-20T13:19:19.144Z,64.37
2018-02-20T13:21:48.443Z,70.60
2018-02-20T13:24:18.552Z,69.43
2018-02-20T13:26:47.874Z,57.00
2018-02-20T13:29:17.215Z,57.53
2018-02-20T13:31:46.533Z,58.25
2018-02-20T13:34:15.894Z,60.28
2018-02-20T13:36:45.192Z,57.05
2018-02-20T13:39:14.519Z,65.18
2018-02-20T13:41:43.872Z,53.30
2018-02-20T13:44:13.930Z,61.58
2018-02-20T13:46:43.284Z,69.45
2018-02-20T13:49:13.344Z,60.28
2018-02-20T13:51:42.682Z,59.20
2018-02-20T13:54:11.977Z,54.72
2018-02-20T13:56:41.300Z,61.10
2018-02-20T13:59:10.598Z,56.90
2018-02-20T14:01:39.891Z,62.45
2018-02-20T14:04:09.249Z,57.55
2018-02-20T14:06:38.593Z,54.72
2018-02-20T14:09:07.904Z,56.80
2018-02-20T14:11:37.225Z,52.85
2018-02-20T14:14:06.514Z,61.42
2018-02-20T14:16:36.638Z,55.70
2018-02-20T14:19:06.718Z,58.83
2018-02-20T14:21:36.038Z,53.42
2018-02-20T14:24:05.422Z,52.10
2018-02-20T14:26:34.760Z,53.05
2018-02-20T14:29:04.875Z,50.63
2018-02-20T14:31:34.194Z,45.83
2018-02-20T14:34:04.337Z,47.80
2018-02-20T14:36:34.413Z,48.55
2018-02-20T14:39:04.578Z,42.75
2018-02-20T14:41:34.630Z,43.95
2018-02-20T14:44:03.994Z,39.92
2018-02-20T14:46:33.284Z,54.00
2018-02-20T14:49:02.580Z,49.90
2018-02-20T14:51:31.901Z,51.67
2018-02-20T14:54:01.194Z,52.78
2018-02-20T14:56:31.434Z,53.78
2018-02-20T14:59:00.719Z,42.78
2018-02-20T15:01:30.044Z,54.08
2018-02-20T15:03:59.347Z,46.75
2018-02-20T15:06:28.673Z,42.97
2018-02-20T15:08:57.942Z,50.38
2018-02-20T15:11:27.993Z,46.35
2018-02-20T15:13:57.303Z,48.35
2018-02-20T15:16:27.436Z,44.47
2018-02-20T15:18:57.485Z,46.45
2018-02-20T15:21:26.811Z,43.67
2018-02-20T15:23:56.238Z,45.58
2018-02-20T15:26:25.536Z,48.80
2018-02-20T15:28:54.812Z,44.17
2018-02-20T15:31:24.147Z,50.25
2018-02-20T15:33:54.233Z,49.13
2018-02-20T15:36:23.607Z,45.20
2018-02-20T15:38:52.951Z,41.13
2018-02-20T15:41:22.281Z,49.78
2018-02-20T15:43:51.627Z,43.83
2018-02-20T15:46:20.911Z,44.05
2018-02-20T15:48:50.257Z,48.10
2018-02-20T15:51:19.566Z,43.83
2018-02-20T15:53:49.643Z,49.15
2018-02-20T15:56:18.987Z,41.60
2018-02-20T15:58:49.050Z,42.83
2018-02-20T16:01:18.398Z,41.25
2018-02-20T16:03:47.700Z,49.03
2018-02-20T16:06:16.976Z,49.22
2018-02-20T16:08:46.307Z,47.67
2018-02-20T16:11:15.581Z,50.85
2018-02-20T16:13:44.924Z,45.88
2018-02-20T16:16:17.293Z,39.83
2018-02-20T16:18:47.372Z,43.83
2018-02-20T16:21:16.695Z,46.70
2018-02-20T16:23:45.996Z,49.35
2018-02-20T16:26:16.056Z,43.80
2018-02-20T16:28:45.421Z,47.28
2018-02-20T16:31:14.731Z,45.58
2018-02-20T16:33:45.456Z,44.08
2018-02-20T16:36:15.550Z,47.58
2018-02-20T16:38:44.828Z,49.03
2018-02-20T16:41:14.155Z,46.47
2018-02-20T16:43:43.511Z,43.17
2018-02-20T16:46:12.823Z,50.92
2018-02-20T16:48:42.121Z,50.05
2018-02-20T16:51:11.431Z,45.53
2018-02-20T16:53:40.726Z,50.38
2018-02-20T16:56:10.061Z,60.67
2018-02-20T16:58:39.390Z,55.28
2018-02-20T17:01:09.580Z,59.33
2018-02-20T17:03:38.935Z,55.12
2018-02-20T17:06:08.238Z,47.33
2018-02-20T17:08:37.525Z,55.30
2018-02-20T17:11:06.841Z,57.62
2018-02-20T17:13:36.143Z,48.47
2018-02-20T17:16:05.463Z,43.15
2018-02-20T17:18:34.758Z,48.20
2018-02-20T17:21:04.143Z,47.58
2018-02-20T17:23:33.405Z,45.00
2018-02-20T17:26:02.719Z,63.47
2018-02-20T17:28:32.072Z,54.33
2018-02-20T17:31:01.446Z,59.92
2018-02-20T17:33:30.766Z,52.20
2018-02-20T17:36:00.060Z,55.33
2018-02-20T17:38:29.349Z,46.78
2018-02-20T17:40:58.660Z,49.47
2018-02-20T17:43:27.976Z,49.20
2018-02-20T17:45:57.304Z,68.90
2018-02-20T17:48:26.680Z,49.88
2018-02-20T17:50:55.962Z,56.95
2018-02-20T17:53:25.297Z,53.05
2018-02-20T17:55:54.573Z,52.35
2018-02-20T17:58:23.927Z,58.28
2018-02-20T18:00:54.025Z,53.03
2018-02-20T18:03:23.384Z,66.35
2018-02-20T18:05:52.687Z,51.33
2018-02-20T18:08:22.029Z,65.22
2018-02-20T18:10:51.316Z,47.15
2018-02-20T18:13:20.660Z,53.80
2018-02-20T18:15:50.729Z,48.90
2018-02-20T18:18:20.066Z,52.78
2018-02-20T18:20:49.380Z,56.22
2018-02-20T18:23:20.436Z,59.80
2018-02-20T18:25:49.754Z,57.92
2018-02-20T18:28:19.065Z,65.18
2018-02-20T18:30:48.461Z,59.72
2018-02-20T18:33:17.763Z,50.63
2018-02-20T18:35:47.060Z,55.92
2018-02-20T18:38:16.448Z,53.47
2018-02-20T18:40:45.745Z,50.78
2018-02-20T18:43:15.107Z,53.92
2018-02-20T18:45:44.451Z,56.08
2018-02-20T18:48:13.772Z,60.10
2018-02-20T18:50:43.051Z,63.03
2018-02-20T18:53:12.387Z,58.38
2018-02-20T18:55:41.678Z,58.53
2018-02-20T18:58:12.935Z,58.28
2018-02-20T19:00:43.007Z,63.85
2018-02-20T19:03:12.421Z,65.68
2018-02-20T19:05:42.610Z,60.22
2018-02-20T19:08:12.134Z,61.25
2018-02-20T19:10:42.408Z,61.63
2018-02-20T19:13:12.559Z,60.92
2018-02-20T19:15:43.456Z,65.62
2018-02-20T19:18:12.968Z,56.00
2018-02-20T19:20:42.256Z,70.22
2018-02-20T19:23:11.563Z,70.80
2018-02-20T19:25:41.033Z,61.58
2018-02-20T19:28:10.385Z,65.78
2018-02-20T19:30:39.676Z,68.50
2018-02-20T19:33:08.984Z,57.40
2018-02-20T19:35:38.272Z,66.95
2018-02-20T19:38:07.584Z,68.82
2018-02-20T19:40:36.938Z,60.38
2018-02-20T19:43:06.233Z,66.40
2018-02-20T19:45:35.540Z,68.65
2018-02-20T19:48:04.893Z,61.85
2018-02-20T19:50:34.227Z,66.60
2018-02-20T19:53:04.347Z,57.65
2018-02-20T19:55:34.418Z,67.85
2018-02-20T19:58:03.749Z,66.87
2018-02-20T20:00:33.064Z,60.03
2018-02-20T20:03:03.158Z,69.07
2018-02-20T20:05:32.465Z,66.90
2018-02-20T20:08:01.795Z,66.03
2018-02-20T20:10:31.104Z,68.85
2018-02-20T20:13:00.469Z,74.87
2018-02-20T20:15:29.786Z,67.82
2018-02-20T20:17:59.839Z,63.22
2018-02-20T20:20:36.907Z,71.30
2018-02-20T20:22:59.416Z,73.28
2018-02-20T20:25:29.502Z,66.00
2018-02-20T20:27:58.832Z,74.30
2018-02-20T20:30:28.172Z,76.20
2018-02-20T20:32:58.215Z,66.18
2018-02-20T20:35:27.537Z,65.22
2018-02-20T20:37:56.899Z,68.57
2018-02-20T20:40:26.203Z,63.55
2018-02-20T20:42:55.746Z,70.20
2018-02-20T20:45:26.957Z,63.67
2018-02-20T20:47:56.279Z,72.53
2018-02-20T20:50:25.591Z,65.85
2018-02-20T20:52:54.860Z,66.25
2018-02-20T20:55:24.214Z,72.82
2018-02-20T20:57:53.557Z,67.87
2018-02-20T21:00:22.878Z,65.07
2018-02-20T21:02:52.182Z,72.15
2018-02-20T21:05:21.560Z,65.70
2018-02-20T21:07:50.859Z,65.65
2018-02-20T21:10:20.179Z,68.28
2018-02-20T21:12:49.460Z,64.72
2018-02-20T21:15:18.825Z,73.75
2018-02-20T21:17:48.897Z,70.10
2018-02-20T21:20:18.394Z,66.78
2018-02-20T21:22:47.671Z,66.15
2018-02-20T21:25:16.995Z,70.00
2018-02-20T21:27:46.300Z,75.60
2018-02-20T21:30:15.603Z,62.20
2018-02-20T21:32:44.966Z,71.43
2018-02-20T21:35:14.255Z,71.22
2018-02-20T21:37:44.341Z,73.53
2018-02-20T21:40:13.729Z,64.55
2018-02-20T21:42:43.033Z,72.80
2018-02-20T21:45:15.191Z,75.90
2018-02-20T21:47:44.547Z,67.72
2018-02-20T21:50:14.035Z,71.22
2018-02-20T21:52:43.364Z,73.03
2018-02-20T21:55:12.661Z,68.18
2018-02-20T21:57:42.902Z,66.60
2018-02-20T22:00:12.237Z,69.47
2018-02-20T22:02:41.530Z,61.47
2018-02-20T22:05:10.853Z,69.70
2018-02-20T22:07:40.154Z,72.03
2018-02-20T22:10:11.249Z,63.42
2018-02-20T22:12:40.563Z,61.40
2018-02-20T22:15:09.926Z,63.30
2018-02-20T22:17:40.008Z,71.50
2018-02-20T22:20:09.335Z,68.05
2018-02-20T22:22:39.396Z,69.07
2018-02-20T22:25:08.738Z,65.97
2018-02-20T22:27:38.035Z,72.03
2018-02-20T22:30:07.386Z,70.22
2018-02-20T22:32:36.732Z,62.50
2018-02-20T22:35:06.033Z,58.15
2018-02-20T22:37:35.350Z,59.28
2018-02-20T22:40:04.652Z,65.05
2018-02-20T22:42:33.997Z,60.20
2018-02-20T22:45:03.334Z,62.53
2018-02-20T22:47:32.630Z,59.10
2018-02-20T22:50:01.942Z,64.18
2018-02-20T22:52:31.253Z,57.58
2018-02-20T22:55:00.588Z,67.25
2018-02-20T22:57:29.892Z,68.35
2018-02-20T22:59:59.268Z,63.90
2018-02-20T23:02:29.359Z,77.35
2018-02-20T23:04:58.684Z,62.95
2018-02-20T23:07:27.998Z,65.15
2018-02-20T23:09:58.088Z,68.53
2018-02-20T23:12:27.396Z,68.57
2018-02-20T23:14:56.723Z,60.38
2018-02-20T23:17:26.778Z,60.78
2018-02-20T23:19:56.136Z,67.18
2018-02-20T23:22:26.182Z,74.43
2018-02-20T23:24:55.510Z,69.65
2018-02-20T23:27:24.857Z,64.93
2018-02-20T23:29:54.941Z,66.22
2018-02-20T23:32:24.283Z,57.72
2018-02-20T23:34:54.348Z,65.15
2018-02-20T23:37:23.699Z,68.62
2018-02-20T23:39:53.774Z,66.00
2018-02-20T23:42:23.100Z,69.70
2018-02-20T23:44:52.424Z,76.00
2018-02-20T23:47:21.748Z,65.07
2018-02-20T23:49:51.055Z,72.07
2018-02-20T23:52:20.362Z,70.25
2018-02-20T23:54:49.849Z,78.62
2018-02-20T23:57:19.154Z,73.72
2018-02-20T23:59:48.453Z,64.47
